Terminal Aerodrome Forecast
Issued by NWS

Home | Current Version | Previous Version | Text Only | Print | Product List | Glossary On
Versions: 1 2 3 4 5 6 7 8 9 10 11 12 13 14
457
FTUS45 KTFX 301726
TAFHLN
TAF
KHLN 301726Z 3018/0118 35006KT P6SM SCT030 BKN060
     FM302000 31010KT P6SM VCSH SCT040 BKN080
     FM010200 VRB06KT P6SM FEW080 SCT150=

USA.gov is the U.S. government's official web portal to all federal, state and local government web resources and services.